Time;durP1;ratioP1;P1;durP2;ratioP2;P2;SDS_P1;SDS_P2;PMS_P1;PMS_P2;Temp;Humidity;BMP_temperature;BMP_pressure;BME280_temperature;BME280_humidity;BME280_pressure;Samples;Min_cycle;Max_cycle;Signal;HPM_P1;HPM_P2
2022/03/14 00:00:22;;;;;;;192.72;85.57;;;;;;;-4.86;65.24;95821.12;1710322;82;21104;-51
2022/03/14 00:02:49;;;;;;;205.22;86.25;;;;;;;-4.90;65.65;95824.23;1711984;82;21268;-51
2022/03/14 00:05:17;;;;;;;227.87;88.42;;;;;;;-4.90;65.87;95821.55;1727369;82;21208;-52
2022/03/14 00:07:46;;;;;;;142.37;61.68;;;;;;;-4.87;65.91;95818.21;1711015;81;21076;-51
2022/03/14 00:10:16;;;;;;;122.22;56.10;;;;;;;-4.87;66.01;95824.37;1712348;82;21085;-50
2022/03/14 00:12:44;;;;;;;115.97;51.25;;;;;;;-4.92;66.02;95821.89;1715081;81;20966;-52
2022/03/14 00:15:13;;;;;;;107.45;50.35;;;;;;;-4.91;66.24;95822.12;1723238;81;20919;-51
2022/03/14 00:17:45;;;;;;;91.63;44.23;;;;;;;-4.89;66.21;95829.83;1721037;82;21070;-50
2022/03/14 00:20:12;;;;;;;85.03;43.38;;;;;;;-4.91;66.21;95826.14;1706012;82;20933;-51
2022/03/14 00:22:40;;;;;;;97.62;47.62;;;;;;;-4.89;66.43;95825.80;1739364;82;21078;-51
2022/03/14 00:25:10;;;;;;;150.47;67.58;;;;;;;-4.82;66.28;95827.44;1725679;82;21529;-51
2022/03/14 00:27:39;;;;;;;151.65;72.42;;;;;;;-4.74;66.10;95827.94;1724742;82;20959;-52
2022/03/14 00:30:10;;;;;;;173.17;77.72;;;;;;;-4.69;65.82;95822.38;1724233;81;21006;-53
2022/03/14 00:32:40;;;;;;;174.05;79.32;;;;;;;-4.66;65.67;95828.43;1717816;82;21021;-51
2022/03/14 00:35:10;;;;;;;203.20;87.62;;;;;;;-4.60;65.66;95831.95;1729763;82;21104;-53
2022/03/14 00:37:39;;;;;;;92.00;44.13;;;;;;;-4.49;65.29;95826.98;1703878;82;21014;-52
2022/03/14 00:40:08;;;;;;;77.65;38.13;;;;;;;-4.48;64.67;95832.05;1708935;82;21213;-51
2022/03/14 00:42:39;;;;;;;69.22;37.50;;;;;;;-4.66;64.34;95831.11;1707884;82;20954;-51
2022/03/14 00:45:07;;;;;;;61.60;36.03;;;;;;;-4.84;64.45;95828.30;1711325;81;21191;-50
2022/03/14 00:47:35;;;;;;;68.20;36.08;;;;;;;-4.99;64.65;95828.86;1727676;81;21045;-53
2022/03/14 00:50:03;;;;;;;71.25;37.73;;;;;;;-5.05;65.07;95828.80;1721777;81;20938;-53
2022/03/14 00:52:31;;;;;;;115.90;57.75;;;;;;;-4.98;65.32;95833.89;1699519;82;21521;-52
2022/03/14 00:54:58;;;;;;;51.77;30.82;;;;;;;-4.88;65.04;95840.78;1724738;82;20986;-52
2022/03/14 00:57:26;;;;;;;50.15;28.32;;;;;;;-4.93;64.49;95836.95;1722465;82;21002;-53
2022/03/14 00:59:55;;;;;;;51.23;28.42;;;;;;;-5.03;64.40;95838.64;1708772;82;21133;-52
2022/03/14 01:02:24;;;;;;;59.25;31.55;;;;;;;-5.14;64.46;95834.76;1718821;82;21002;-52
2022/03/14 01:04:51;;;;;;;63.83;30.72;;;;;;;-5.19;64.80;95842.99;1716278;82;21200;-52
2022/03/14 01:07:20;;;;;;;52.62;28.67;;;;;;;-5.15;64.99;95847.37;1718436;82;21099;-51
2022/03/14 01:09:48;;;;;;;53.68;28.35;;;;;;;-5.04;65.21;95840.55;1723304;82;21529;-51
2022/03/14 01:12:17;;;;;;;44.05;27.40;;;;;;;-4.87;64.71;95845.05;1724381;82;20958;-51
2022/03/14 01:14:45;;;;;;;51.50;29.32;;;;;;;-4.83;64.32;95840.05;1712321;82;20935;-51
2022/03/14 01:17:13;;;;;;;75.40;45.40;;;;;;;-4.87;64.43;95841.02;1728028;82;21770;-52
2022/03/14 01:19:42;;;;;;;79.37;50.65;;;;;;;-4.86;64.36;95850.64;1717749;82;21558;-50
2022/03/14 01:22:14;;;;;;;86.75;47.83;;;;;;;-4.95;64.15;95845.88;1713943;82;21061;-52
2022/03/14 01:24:38;;;;;;;70.28;39.53;;;;;;;-5.02;64.80;95851.74;1707090;82;21061;-54
2022/03/14 01:27:06;;;;;;;57.80;32.80;;;;;;;-4.97;64.52;95845.42;1706280;82;21454;-52
2022/03/14 01:29:34;;;;;;;55.70;30.17;;;;;;;-4.98;64.47;95847.87;1714623;82;22006;-52
2022/03/14 01:32:03;;;;;;;61.42;33.53;;;;;;;-5.05;64.30;95856.95;1709634;82;21584;-51
2022/03/14 01:34:31;;;;;;;102.67;51.73;;;;;;;-5.15;64.23;95853.30;1711132;82;21506;-51
2022/03/14 01:36:58;;;;;;;103.85;54.35;;;;;;;-5.29;64.28;95854.05;1716571;81;21058;-56
2022/03/14 01:39:26;;;;;;;84.35;43.40;;;;;;;-5.37;64.36;95852.20;1721968;82;20962;-51
2022/03/14 01:41:55;;;;;;;100.10;50.73;;;;;;;-5.44;64.50;95853.22;1722521;81;21244;-52
2022/03/14 01:44:23;;;;;;;85.70;41.35;;;;;;;-5.54;64.61;95850.89;1712908;82;21537;-52
2022/03/14 01:46:51;;;;;;;97.67;50.70;;;;;;;-5.61;64.69;95855.94;1718684;82;21641;-51
2022/03/14 01:49:18;;;;;;;97.57;48.02;;;;;;;-5.69;64.81;95858.09;1712384;82;21633;-51
2022/03/14 01:51:46;;;;;;;98.52;52.50;;;;;;;-5.79;65.11;95853.08;1725108;81;21450;-51
2022/03/14 01:54:13;;;;;;;107.22;49.55;;;;;;;-5.92;65.35;95859.41;1717426;82;21157;-52
2022/03/14 01:56:41;;;;;;;115.60;56.90;;;;;;;-5.97;65.78;95866.81;1709722;82;21006;-52
2022/03/14 01:59:10;;;;;;;91.85;47.60;;;;;;;-5.95;65.93;95860.59;1717768;82;21099;-52
2022/03/14 02:01:39;;;;;;;103.38;47.27;;;;;;;-5.93;65.95;95866.41;1725787;82;21108;-51
2022/03/14 02:04:08;;;;;;;102.75;49.88;;;;;;;-5.98;66.12;95864.67;1712537;82;21066;-54
2022/03/14 02:06:37;;;;;;;103.07;51.35;;;;;;;-5.96;66.44;95865.14;1727561;82;21154;-51
2022/03/14 02:09:04;;;;;;;119.97;54.65;;;;;;;-5.82;66.68;95867.11;1720819;82;21573;-50
2022/03/14 02:11:33;;;;;;;108.40;55.88;;;;;;;-5.67;66.43;95868.47;1719727;82;20997;-50
2022/03/14 02:14:03;;;;;;;105.27;51.10;;;;;;;-5.49;66.30;95874.84;1727352;82;21049;-51
2022/03/14 02:16:32;;;;;;;67.62;35.25;;;;;;;-5.32;65.99;95869.44;1716518;82;20991;-51
2022/03/14 02:19:01;;;;;;;80.15;39.15;;;;;;;-5.16;65.34;95877.20;1718989;82;21767;-51
2022/03/14 02:21:28;;;;;;;69.60;37.40;;;;;;;-5.20;64.81;95876.25;1732695;82;20951;-50
2022/03/14 02:23:57;;;;;;;66.85;35.92;;;;;;;-5.19;65.02;95877.85;1723186;82;21050;-50
2022/03/14 02:26:24;;;;;;;59.93;30.75;;;;;;;-5.15;64.57;95884.14;1726537;82;21454;-51
2022/03/14 02:28:52;;;;;;;52.50;30.25;;;;;;;-5.13;64.30;95879.24;1722624;82;21011;-53
2022/03/14 02:31:19;;;;;;;58.48;29.60;;;;;;;-5.16;63.53;95894.64;1737290;81;21264;-52
2022/03/14 02:33:48;;;;;;;49.18;27.05;;;;;;;-5.31;63.46;95885.19;1727616;82;21410;-51
2022/03/14 02:36:15;;;;;;;49.93;28.35;;;;;;;-5.40;63.38;95886.89;1728705;81;21014;-53
2022/03/14 02:38:44;;;;;;;53.70;27.40;;;;;;;-5.46;63.71;95883.58;1730214;82;21649;-58
2022/03/14 02:41:11;;;;;;;63.17;35.38;;;;;;;-5.48;63.49;95889.81;1727542;82;21144;-51
2022/03/14 02:43:39;;;;;;;67.58;37.65;;;;;;;-5.51;63.51;95887.77;1727930;81;21237;-51
2022/03/14 02:46:08;;;;;;;79.35;43.42;;;;;;;-5.54;63.56;95890.30;1743130;81;21197;-50
2022/03/14 02:48:39;;;;;;;77.10;41.98;;;;;;;-5.59;63.53;95889.12;1729087;82;21014;-51
2022/03/14 02:51:05;;;;;;;65.87;34.80;;;;;;;-5.68;63.64;95894.49;1723101;82;21084;-51
2022/03/14 02:53:33;;;;;;;49.35;27.48;;;;;;;-5.73;64.22;95900.02;1727856;82;21560;-51
2022/03/14 02:56:00;;;;;;;42.27;25.30;;;;;;;-5.63;64.36;95906.38;1723580;82;21153;-51
2022/03/14 02:58:29;;;;;;;50.58;30.25;;;;;;;-5.57;63.96;95894.95;1724933;81;20954;-49
2022/03/14 03:00:57;;;;;;;61.88;35.90;;;;;;;-5.70;63.77;95895.36;1730608;82;20967;-51
2022/03/14 03:03:25;;;;;;;55.50;32.25;;;;;;;-5.82;63.90;95903.27;1727181;82;21069;-50
2022/03/14 03:05:53;;;;;;;59.30;33.30;;;;;;;-5.88;63.84;95917.14;1726598;82;21030;-50
2022/03/14 03:08:22;;;;;;;83.58;47.23;;;;;;;-6.03;63.92;95910.90;1723957;82;21259;-50
2022/03/14 03:10:49;;;;;;;68.20;38.90;;;;;;;-6.18;64.14;95922.86;1733535;82;21510;-51
2022/03/14 03:13:17;;;;;;;49.85;27.75;;;;;;;-6.25;64.51;95919.88;1732079;82;21450;-50
2022/03/14 03:15:45;;;;;;;43.92;24.37;;;;;;;-6.30;64.74;95920.00;1743486;81;20975;-51
2022/03/14 03:18:13;;;;;;;54.55;30.72;;;;;;;-6.31;64.66;95923.00;1726196;82;21085;-52
2022/03/14 03:20:42;;;;;;;58.98;31.20;;;;;;;-6.43;64.63;95930.84;1724242;82;21216;-50
2022/03/14 03:23:11;;;;;;;66.72;35.73;;;;;;;-6.51;64.65;95923.03;1727319;82;21034;-51
2022/03/14 03:25:38;;;;;;;78.87;36.60;;;;;;;-6.61;64.84;95918.52;1726007;81;21029;-51
2022/03/14 03:28:05;;;;;;;76.85;37.33;;;;;;;-6.66;65.04;95918.09;1725455;81;21013;-51
2022/03/14 03:30:33;;;;;;;88.10;40.20;;;;;;;-6.71;65.06;95919.59;1731639;81;21006;-51
2022/03/14 03:33:00;;;;;;;84.58;42.78;;;;;;;-6.78;65.17;95919.80;1730378;82;21241;-53
2022/03/14 03:35:29;;;;;;;104.70;50.73;;;;;;;-6.84;65.39;95921.84;1722415;82;20943;-50
2022/03/14 03:37:56;;;;;;;90.22;44.73;;;;;;;-6.87;65.87;95924.34;1728947;82;21057;-52
2022/03/14 03:40:24;;;;;;;86.05;43.42;;;;;;;-6.78;66.05;95920.59;1725377;82;21574;-51
2022/03/14 03:42:54;;;;;;;105.45;49.53;;;;;;;-6.75;65.96;95926.66;1719481;82;21150;-52
2022/03/14 03:45:21;;;;;;;90.95;48.35;;;;;;;-6.79;65.99;95924.38;1720529;82;21303;-52
2022/03/14 03:47:50;;;;;;;109.20;49.18;;;;;;;-6.85;66.01;95932.84;1718899;81;21062;-51
2022/03/14 03:50:17;;;;;;;102.15;53.80;;;;;;;-6.91;66.25;95938.09;1726051;82;21014;-51
2022/03/14 03:52:46;;;;;;;105.50;53.63;;;;;;;-6.90;66.50;95941.00;1723851;82;20977;-50
2022/03/14 03:55:14;;;;;;;96.05;48.40;;;;;;;-6.88;66.52;95946.83;1717959;82;21022;-51
2022/03/14 03:57:42;;;;;;;96.02;47.65;;;;;;;-6.78;66.78;95949.22;1728007;82;21726;-51
2022/03/14 04:00:12;;;;;;;93.52;46.98;;;;;;;-6.70;66.82;95947.91;1712594;82;21579;-51
2022/03/14 04:02:44;;;;;;;89.20;44.65;;;;;;;-6.51;66.65;95949.78;1727067;82;21007;-51
2022/03/14 04:05:13;;;;;;;103.87;48.30;;;;;;;-6.33;65.97;95947.96;1730510;82;21026;-50
2022/03/14 04:07:43;;;;;;;61.30;33.25;;;;;;;-6.34;65.34;95946.39;1730842;82;21456;-52
2022/03/14 04:10:14;;;;;;;55.80;30.75;;;;;;;-6.40;65.41;95947.08;1722625;82;21247;-52
2022/03/14 04:12:44;;;;;;;71.60;33.10;;;;;;;-6.46;65.21;95959.03;1726490;82;21011;-52
2022/03/14 04:15:14;;;;;;;51.48;27.22;;;;;;;-6.62;64.99;95953.86;1723807;81;21095;-52
2022/03/14 04:17:42;;;;;;;95.87;44.45;;;;;;;-6.76;64.94;95960.39;1718106;82;21001;-51
2022/03/14 04:20:11;;;;;;;93.37;41.35;;;;;;;-6.97;65.04;95952.67;1721288;82;21100;-51
2022/03/14 04:22:40;;;;;;;105.80;46.92;;;;;;;-7.02;65.56;95954.69;1720800;82;21092;-51
2022/03/14 04:25:14;;;;;;;122.92;53.68;;;;;;;-6.99;65.77;95954.87;1732888;82;21486;-51
2022/03/14 04:27:39;;;;;;;102.82;48.08;;;;;;;-6.90;65.92;95959.16;1724693;81;21040;-57
2022/03/14 04:30:08;;;;;;;103.53;52.20;;;;;;;-6.78;66.18;95967.94;1728697;82;21126;-52
2022/03/14 04:32:35;;;;;;;102.20;48.02;;;;;;;-6.62;66.04;95954.39;1730446;81;20959;-52
2022/03/14 04:35:05;;;;;;;77.17;37.38;;;;;;;-6.54;65.59;95956.33;1732126;81;21331;-53
2022/03/14 04:37:32;;;;;;;61.63;33.40;;;;;;;-6.57;65.17;95956.92;1725668;82;21038;-53
2022/03/14 04:40:01;;;;;;;56.10;29.35;;;;;;;-6.63;65.23;95961.65;1726278;82;21473;-51
2022/03/14 04:42:29;;;;;;;65.78;31.35;;;;;;;-6.67;64.80;95962.56;1728701;81;21034;-52
2022/03/14 04:44:57;;;;;;;58.40;32.15;;;;;;;-6.79;64.74;95972.52;1713160;82;21207;-52
2022/03/14 04:47:26;;;;;;;75.12;40.95;;;;;;;-6.90;64.86;95972.53;1713252;82;21120;-50
2022/03/14 04:49:53;;;;;;;71.65;38.40;;;;;;;-6.94;64.81;95976.12;1719686;82;21071;-52
2022/03/14 04:52:21;;;;;;;67.42;37.88;;;;;;;-7.00;64.79;95974.68;1736783;82;20997;-51
2022/03/14 04:54:49;;;;;;;79.22;39.48;;;;;;;-6.97;65.28;95976.73;1725474;82;21410;-52
2022/03/14 04:57:17;;;;;;;59.13;32.65;;;;;;;-6.83;65.29;95982.79;1710047;82;21816;-52
2022/03/14 04:59:44;;;;;;;70.30;36.90;;;;;;;-6.72;65.03;95987.56;1719644;82;22120;-53
2022/03/14 05:02:12;;;;;;;74.72;36.33;;;;;;;-6.59;65.12;95989.89;1713537;82;21091;-51
2022/03/14 05:04:39;;;;;;;68.65;35.45;;;;;;;-6.44;64.72;95985.47;1708146;82;21569;-52
2022/03/14 05:07:07;;;;;;;69.22;34.65;;;;;;;-6.43;64.24;95990.52;1710070;82;21128;-50
2022/03/14 05:09:34;;;;;;;71.40;34.63;;;;;;;-6.50;64.09;95990.73;1703122;82;21014;-51
2022/03/14 05:12:03;;;;;;;74.25;39.90;;;;;;;-6.59;63.96;96005.41;1698702;82;21238;-52
2022/03/14 05:14:32;;;;;;;121.22;68.37;;;;;;;-6.72;64.03;96003.61;1718429;82;21521;-51
2022/03/14 05:16:59;;;;;;;104.25;51.98;;;;;;;-6.79;64.30;96001.13;1726983;82;21210;-52
2022/03/14 05:19:28;;;;;;;146.50;75.72;;;;;;;-6.75;64.57;96000.22;1701322;82;21088;-51
2022/03/14 05:21:55;;;;;;;134.75;73.55;;;;;;;-6.64;64.34;96003.41;1725065;82;20979;-52
2022/03/14 05:24:23;;;;;;;85.35;48.38;;;;;;;-6.61;64.01;96003.59;1729880;82;21828;-51
2022/03/14 05:26:54;;;;;;;75.03;42.95;;;;;;;-6.61;64.02;96011.62;1727705;81;20927;-51
2022/03/14 05:29:20;;;;;;;76.25;46.20;;;;;;;-6.60;63.74;96019.89;1736235;81;21029;-54
2022/03/14 05:31:47;;;;;;;73.47;43.15;;;;;;;-6.58;63.76;96008.86;1713751;82;20979;-53
2022/03/14 05:34:15;;;;;;;85.30;47.15;;;;;;;-6.54;63.76;96017.30;1706556;82;21076;-53
2022/03/14 05:36:43;;;;;;;87.50;47.62;;;;;;;-6.49;63.76;96017.73;1716735;82;21104;-51
2022/03/14 05:39:10;;;;;;;100.82;50.33;;;;;;;-6.41;63.85;96026.33;1712787;82;20999;-52
2022/03/14 05:41:37;;;;;;;141.12;63.95;;;;;;;-6.35;63.68;96023.77;1724840;82;21060;-52
2022/03/14 05:44:05;;;;;;;153.75;68.22;;;;;;;-6.34;63.65;96016.75;1721058;82;21080;-52
2022/03/14 05:46:34;;;;;;;145.55;65.35;;;;;;;-6.36;63.65;96026.98;1705668;82;20967;-51
2022/03/14 05:49:01;;;;;;;201.98;87.85;;;;;;;-6.41;63.56;96023.11;1714189;81;21156;-50
2022/03/14 05:51:28;;;;;;;219.15;97.75;;;;;;;-6.46;63.87;96023.26;1700873;81;21095;-51
2022/03/14 05:53:57;;;;;;;243.48;111.42;;;;;;;-6.34;64.06;96032.04;1712976;81;21140;-51
2022/03/14 05:56:24;;;;;;;214.23;103.53;;;;;;;-6.17;63.88;96027.52;1711910;82;21461;-52
2022/03/14 05:58:53;;;;;;;219.75;114.80;;;;;;;-5.97;63.68;96030.95;1705583;82;21433;-54
2022/03/14 06:01:21;;;;;;;205.27;102.22;;;;;;;-5.89;63.28;96025.38;1720928;81;21130;-52
2022/03/14 06:03:50;;;;;;;156.32;78.52;;;;;;;-5.80;63.80;96039.03;1725528;82;21007;-54
2022/03/14 06:06:17;;;;;;;101.78;53.08;;;;;;;-5.57;63.24;96039.67;1717619;82;21599;-51
2022/03/14 06:08:45;;;;;;;84.10;47.62;;;;;;;-5.48;62.66;96039.12;1724016;82;20991;-54
2022/03/14 06:11:14;;;;;;;112.22;58.52;;;;;;;-5.36;62.50;96046.80;1713977;82;21676;-53
2022/03/14 06:13:43;;;;;;;101.38;56.53;;;;;;;-5.13;62.61;96038.82;1728052;81;21113;-53
2022/03/14 06:16:10;;;;;;;149.00;68.05;;;;;;;-4.85;61.90;96040.84;1704235;82;21006;-53
2022/03/14 06:18:39;;;;;;;131.80;61.20;;;;;;;-4.73;61.40;96036.95;1692715;82;21368;-52
2022/03/14 06:21:06;;;;;;;94.22;49.60;;;;;;;-4.68;61.30;96034.64;1704456;82;21007;-54
2022/03/14 06:23:34;;;;;;;100.92;51.28;;;;;;;-4.55;61.10;96041.72;1701104;82;21041;-52
2022/03/14 06:26:01;;;;;;;82.78;42.00;;;;;;;-4.46;60.86;96041.16;1718538;82;21133;-53
2022/03/14 06:28:29;;;;;;;90.28;46.18;;;;;;;-4.36;60.60;96036.77;1691619;82;21070;-52
2022/03/14 06:30:56;;;;;;;96.37;53.30;;;;;;;-4.36;60.35;96030.85;1687151;83;20990;-51
2022/03/14 06:33:24;;;;;;;84.07;43.50;;;;;;;-4.34;60.42;96034.00;1689932;83;21109;-54
2022/03/14 06:35:51;;;;;;;90.90;47.43;;;;;;;-4.24;60.22;96030.17;1697836;84;21054;-55
2022/03/14 06:38:19;;;;;;;96.80;48.33;;;;;;;-4.24;60.03;96026.14;1712071;82;21755;-52
2022/03/14 06:40:47;;;;;;;104.97;50.10;;;;;;;-4.21;60.08;96039.69;1718555;82;21458;-52
2022/03/14 06:43:17;;;;;;;100.30;51.80;;;;;;;-4.15;59.97;96032.25;1699142;83;21187;-52
2022/03/14 06:45:46;;;;;;;95.97;51.90;;;;;;;-4.05;59.84;96029.22;1693656;83;20997;-57
2022/03/14 06:48:14;;;;;;;89.62;46.05;;;;;;;-3.93;60.14;96030.64;1708719;83;21095;-56
2022/03/14 06:50:42;;;;;;;85.45;41.70;;;;;;;-3.80;59.68;96029.63;1705844;83;21955;-56
2022/03/14 06:53:09;;;;;;;73.87;36.17;;;;;;;-3.68;59.53;96025.12;1716123;81;21552;-57
2022/03/14 06:55:38;;;;;;;58.92;34.08;;;;;;;-3.55;59.33;96029.47;1697170;83;22246;-58
2022/03/14 06:58:05;;;;;;;81.22;35.73;;;;;;;-3.32;59.02;96027.48;1739186;81;21037;-58
2022/03/14 07:00:34;;;;;;;75.37;41.58;;;;;;;-3.15;58.51;96027.90;1703417;83;21581;-53
2022/03/14 07:03:02;;;;;;;66.57;36.15;;;;;;;-2.97;58.65;96034.72;1706847;83;21229;-55
2022/03/14 07:05:29;;;;;;;66.55;35.80;;;;;;;-2.69;57.92;96029.00;1710398;81;21582;-53
2022/03/14 07:07:57;;;;;;;102.67;47.30;;;;;;;-2.57;57.44;96024.44;1707602;82;21032;-56
2022/03/14 07:10:25;;;;;;;86.42;48.17;;;;;;;-2.56;57.46;96021.97;1713103;82;21048;-56
2022/03/14 07:12:54;;;;;;;77.67;44.25;;;;;;;-2.47;57.34;96023.22;1704722;82;21186;-54
2022/03/14 07:15:23;;;;;;;72.97;39.35;;;;;;;-2.40;57.16;96031.53;1703091;82;21230;-58
2022/03/14 07:17:50;;;;;;;78.15;46.15;;;;;;;-2.29;56.97;96025.95;1709503;82;21157;-56
2022/03/14 07:20:18;;;;;;;79.03;39.65;;;;;;;-2.14;56.79;96030.12;1694666;81;21037;-54
2022/03/14 07:22:58;;;;;;;63.90;32.70;;;;;;;-2.02;56.41;96025.30;1706728;81;21046;-55
2022/03/14 07:25:28;;;;;;;61.85;37.58;;;;;;;-1.93;55.93;96031.38;1691936;83;21123;-55
2022/03/14 07:28:07;;;;;;;73.28;41.15;;;;;;;-1.84;56.03;96024.75;1698047;82;21755;-54
2022/03/14 07:30:38;;;;;;;61.05;31.23;;;;;;;-1.70;55.63;96031.38;1704201;81;20998;-54
2022/03/14 07:33:05;;;;;;;42.00;24.52;;;;;;;-1.57;55.46;96022.70;1704112;82;21054;-55
2022/03/14 07:35:34;;;;;;;42.43;22.73;;;;;;;-1.43;55.22;96020.44;1709428;82;21892;-55
2022/03/14 07:38:03;;;;;;;35.10;22.05;;;;;;;-1.32;54.96;96014.81;1709063;81;21023;-55
2022/03/14 07:40:32;;;;;;;43.55;21.35;;;;;;;-1.19;54.68;96014.98;1712089;82;21133;-54
2022/03/14 07:43:01;;;;;;;32.83;20.20;;;;;;;-1.07;54.81;96013.61;1713450;82;21014;-55
2022/03/14 07:45:31;;;;;;;36.17;18.42;;;;;;;-0.89;54.30;96017.05;1709498;82;21603;-53
2022/03/14 07:47:58;;;;;;;33.15;18.20;;;;;;;-0.82;53.88;96011.03;1692321;82;21941;-54
2022/03/14 07:50:27;;;;;;;34.50;20.37;;;;;;;-0.79;53.90;96005.73;1705638;82;20970;-54
2022/03/14 07:52:57;;;;;;;23.25;16.77;;;;;;;-0.72;54.09;96007.85;1702407;82;21145;-55
2022/03/14 07:55:25;;;;;;;32.25;18.40;;;;;;;-0.55;53.70;96008.90;1697591;82;21024;-53
2022/03/14 07:57:54;;;;;;;34.18;18.62;;;;;;;-0.40;54.01;96007.56;1716483;82;21546;-54
2022/03/14 08:00:23;;;;;;;33.45;20.62;;;;;;;-0.25;53.63;96006.80;1705386;82;21153;-55
2022/03/14 08:02:50;;;;;;;27.73;18.25;;;;;;;-0.05;53.35;96000.94;1692561;83;21186;-54
2022/03/14 08:05:24;;;;;;;30.48;19.87;;;;;;;0.18;53.00;96008.06;1688973;82;21520;-54
2022/03/14 08:07:49;;;;;;;37.60;24.45;;;;;;;0.30;52.83;96003.36;1697739;82;21085;-55
2022/03/14 08:10:18;;;;;;;32.33;20.70;;;;;;;0.50;52.55;96004.98;1704923;82;21148;-55
2022/03/14 08:12:54;;;;;;;43.10;22.77;;;;;;;0.79;52.31;96003.11;1702619;82;22351;-54
2022/03/14 08:15:25;;;;;;;45.12;29.07;;;;;;;1.00;51.70;96006.27;1701734;82;21102;-55
2022/03/14 08:17:57;;;;;;;29.67;19.73;;;;;;;1.09;51.06;96000.08;1702524;82;21042;-56
2022/03/14 08:20:27;;;;;;;39.60;22.58;;;;;;;1.23;50.95;96001.73;1708275;82;20978;-55
2022/03/14 08:22:56;;;;;;;34.20;22.32;;;;;;;1.39;50.69;96001.08;1712358;81;21503;-54
2022/03/14 08:25:23;;;;;;;29.77;19.17;;;;;;;1.49;50.35;95992.35;1695273;82;21062;-54
2022/03/14 08:27:51;;;;;;;33.85;20.27;;;;;;;1.67;50.24;96000.25;1705451;82;21098;-53
2022/03/14 08:30:21;;;;;;;29.63;19.75;;;;;;;1.77;49.65;96002.38;1704864;82;22388;-53
2022/03/14 08:32:48;;;;;;;34.85;20.55;;;;;;;1.75;49.35;95999.25;1693069;82;21007;-54
2022/03/14 08:35:18;;;;;;;37.73;19.92;;;;;;;1.81;49.44;95993.73;1701018;82;21030;-54
2022/03/14 08:37:45;;;;;;;37.65;19.92;;;;;;;1.86;49.31;95993.42;1712878;82;21145;-55
2022/03/14 08:40:16;;;;;;;31.97;19.32;;;;;;;1.91;49.35;95987.13;1694127;82;21133;-55
2022/03/14 08:42:44;;;;;;;31.37;20.37;;;;;;;1.97;49.33;95988.98;1692847;82;21139;-54
2022/03/14 08:45:11;;;;;;;52.10;23.87;;;;;;;2.12;49.46;95988.07;1707772;82;21513;-55
2022/03/14 08:47:39;;;;;;;46.28;30.35;;;;;;;2.27;49.31;95974.35;1700163;81;21505;-55
2022/03/14 08:50:09;;;;;;;52.03;34.27;;;;;;;2.43;49.09;95967.41;1699390;82;21658;-54
2022/03/14 08:52:37;;;;;;;60.40;33.70;;;;;;;2.67;49.34;95982.71;1710907;82;21140;-54
2022/03/14 08:55:06;;;;;;;60.63;34.78;;;;;;;2.88;48.83;95974.08;1703124;82;21153;-54
2022/03/14 08:57:33;;;;;;;54.18;27.75;;;;;;;3.01;48.79;95967.25;1711558;81;21063;-59
2022/03/14 09:00:01;;;;;;;42.03;23.52;;;;;;;3.17;48.55;95967.84;1669019;84;22376;-57
2022/03/14 09:02:29;;;;;;;66.25;29.90;;;;;;;3.29;48.14;95967.61;1650933;85;21383;-58
2022/03/14 09:04:58;;;;;;;40.78;25.92;;;;;;;3.53;47.75;95961.86;1663372;84;21011;-57
2022/03/14 09:07:26;;;;;;;41.23;27.02;;;;;;;3.84;47.84;95964.73;1638846;85;21583;-57
2022/03/14 09:09:53;;;;;;;34.92;22.95;;;;;;;3.96;46.58;95963.88;1645450;84;21093;-58
2022/03/14 09:12:21;;;;;;;43.83;26.77;;;;;;;4.02;46.28;95958.27;1650447;84;21104;-57
2022/03/14 09:14:50;;;;;;;43.73;25.12;;;;;;;4.20;46.70;95957.84;1649646;85;21109;-58
2022/03/14 09:17:18;;;;;;;41.05;23.70;;;;;;;4.45;46.41;95945.19;1648410;85;21407;-54
2022/03/14 09:19:47;;;;;;;42.85;24.85;;;;;;;4.67;46.50;95952.94;1654565;84;21393;-53
2022/03/14 09:22:14;;;;;;;37.50;22.70;;;;;;;4.91;46.52;95947.63;1651000;84;21108;-54
2022/03/14 09:24:43;;;;;;;34.53;20.15;;;;;;;5.18;45.72;95946.80;1651328;84;21123;-53
2022/03/14 09:27:11;;;;;;;30.30;18.77;;;;;;;5.41;45.82;95937.14;1653644;85;21074;-53
2022/03/14 09:29:39;;;;;;;34.03;20.68;;;;;;;5.57;44.80;95945.17;1658994;85;21675;-52
2022/03/14 09:32:08;;;;;;;39.95;21.90;;;;;;;5.76;44.66;95942.70;1649269;84;21254;-54
2022/03/14 09:34:38;;;;;;;25.82;18.00;;;;;;;5.94;44.24;95940.81;1648834;84;21073;-54
2022/03/14 09:37:07;;;;;;;38.17;21.73;;;;;;;6.12;44.33;95937.52;1653706;85;21546;-56
2022/03/14 09:39:34;;;;;;;36.73;21.10;;;;;;;6.36;43.74;95936.73;1652163;84;21038;-54
2022/03/14 09:42:04;;;;;;;31.15;19.60;;;;;;;6.67;43.80;95937.30;1649769;85;21579;-55
2022/03/14 09:44:32;;;;;;;24.92;16.60;;;;;;;7.06;42.91;95935.26;1652014;85;21127;-55
2022/03/14 09:47:03;;;;;;;32.73;21.00;;;;;;;7.48;42.52;95937.26;1666376;85;21079;-55
2022/03/14 09:49:31;;;;;;;29.72;18.82;;;;;;;7.89;41.29;95936.84;1658787;85;21371;-55
2022/03/14 09:51:59;;;;;;;23.75;16.48;;;;;;;8.35;40.56;95938.69;1657787;84;21711;-57
2022/03/14 09:54:26;;;;;;;24.90;16.07;;;;;;;8.78;39.65;95933.80;1641998;84;20990;-54
2022/03/14 09:56:56;;;;;;;24.37;15.13;;;;;;;9.23;39.21;95925.70;1648995;84;21173;-55
2022/03/14 09:59:22;;;;;;;24.63;15.65;;;;;;;9.76;38.71;95928.58;1641967;84;21136;-54
2022/03/14 10:01:50;;;;;;;22.67;16.15;;;;;;;10.27;38.54;95936.48;1642343;84;21168;-54
2022/03/14 10:04:18;;;;;;;23.75;15.83;;;;;;;10.69;37.57;95924.83;1652028;84;21106;-55
2022/03/14 10:06:45;;;;;;;21.95;15.28;;;;;;;11.12;36.71;95929.92;1656095;85;20935;-54
2022/03/14 10:09:13;;;;;;;23.22;15.15;;;;;;;11.56;35.66;95928.09;1649810;84;21264;-56
2022/03/14 10:11:41;;;;;;;22.32;16.17;;;;;;;12.01;35.08;95923.61;1634831;85;21040;-57
2022/03/14 10:14:11;;;;;;;23.15;15.93;;;;;;;12.57;34.34;95918.16;1645746;85;21062;-56
2022/03/14 10:16:39;;;;;;;27.10;18.25;;;;;;;13.20;33.01;95923.46;1649504;84;21106;-60
2022/03/14 10:19:13;;;;;;;20.92;15.18;;;;;;;13.65;32.71;95917.29;1653159;84;21994;-57
2022/03/14 10:21:39;;;;;;;30.30;18.73;;;;;;;13.94;31.93;95916.63;1652162;85;21254;-56
2022/03/14 10:24:08;;;;;;;26.33;18.20;;;;;;;14.20;31.65;95921.02;1656576;84;21088;-56
2022/03/14 10:26:43;;;;;;;23.20;15.08;;;;;;;14.50;30.98;95914.31;1648554;84;21113;-56
2022/03/14 10:29:14;;;;;;;23.40;15.53;;;;;;;14.93;30.31;95922.19;1645829;84;21075;-58
2022/03/14 10:31:45;;;;;;;23.18;16.97;;;;;;;15.21;29.92;95915.67;1646620;85;21145;-58
2022/03/14 10:34:15;;;;;;;26.17;17.30;;;;;;;15.45;29.42;95916.85;1650834;84;21104;-56
2022/03/14 10:36:57;;;;;;;26.52;17.70;;;;;;;15.76;29.83;95912.14;1653766;85;22204;-57
2022/03/14 10:39:31;;;;;;;22.65;14.55;;;;;;;16.06;28.80;95907.25;1656217;84;21062;-57
2022/03/14 10:42:07;;;;;;;22.27;15.78;;;;;;;16.32;28.74;95901.66;1655050;84;21043;-57
2022/03/14 10:44:37;;;;;;;27.10;17.77;;;;;;;16.44;28.21;95907.17;1669592;84;21067;-56
2022/03/14 10:47:09;;;;;;;45.67;18.15;;;;;;;16.74;27.78;95901.41;1710081;81;21186;-55
2022/03/14 10:49:38;;;;;;;27.58;18.15;;;;;;;17.07;27.51;95894.08;1705588;82;21213;-54
2022/03/14 10:52:07;;;;;;;30.37;17.80;;;;;;;17.54;25.93;95888.87;1697634;82;21036;-54
2022/03/14 10:54:36;;;;;;;27.02;15.30;;;;;;;17.86;26.24;95888.98;1696404;83;22271;-56
2022/03/14 10:57:16;;;;;;;23.73;16.05;;;;;;;18.06;26.11;95882.92;1710600;82;21637;-54
2022/03/14 10:59:48;;;;;;;25.60;14.15;;;;;;;18.38;25.07;95885.17;1669574;84;21530;-56
2022/03/14 11:02:22;;;;;;;22.85;13.75;;;;;;;18.66;25.16;95882.41;1645769;84;21070;-55
2022/03/14 11:04:57;;;;;;;20.52;14.13;;;;;;;18.76;25.20;95879.74;1631964;85;22162;-57
2022/03/14 11:07:31;;;;;;;23.12;15.60;;;;;;;18.90;25.00;95871.30;1650642;84;21113;-56
2022/03/14 11:10:00;;;;;;;22.37;13.48;;;;;;;19.21;24.75;95868.32;1688200;83;21113;-55
2022/03/14 11:12:29;;;;;;;17.27;11.57;;;;;;;19.56;24.78;95865.74;1702837;82;21245;-56
2022/03/14 11:15:06;;;;;;;18.62;13.45;;;;;;;19.66;23.83;95856.80;1695406;83;20956;-56
2022/03/14 11:17:35;;;;;;;26.60;17.42;;;;;;;19.66;22.32;95859.59;1685942;84;21090;-55
2022/03/14 11:20:04;;;;;;;17.65;11.93;;;;;;;19.73;22.99;95862.00;1686062;84;21009;-53
2022/03/14 11:22:33;;;;;;;21.45;11.43;;;;;;;19.88;22.99;95858.61;1688429;82;21051;-53